aviador You're here:

KS33 Decoded Metar

in
Report Time2018-06-24 00:35:00
UTC Time2018-06-24 00:57:10
Flight Rules vfr VFR
Wind310° at 07 kt
W.Rank310° ranks 5
Current wind is below 310° avg. (8.1)
Visibility9999 m
Phenomena:N/A
Clouds:N/A
Expected CloudBase > 7,200 ft AGL from Temp-Dew spread
CeilingNone
Temp24°C
Dew Point06°C (31% RH)
AAT20.5°C
QNH1019 hPa
Raw Report
KS33 240035Z AUTO 31007KT 10SM CLR 24/06 A3008 RMK AO2=

Extra information for KS33:More info

Social comments